Time;durP1;ratioP1;P1;durP2;ratioP2;P2;SDS_P1;SDS_P2;PMS_P1;PMS_P2;Temp;Humidity;BMP_temperature;BMP_pressure;BME280_temperature;BME280_humidity;BME280_pressure;Samples;Min_cycle;Max_cycle;Signal;HPM_P1;HPM_P2
2023/10/15 00:00:00;;;;;;;11.70;6.10;;;;;;;13.07;78.06;98013.02;102573;1293;600119;-22
2023/10/15 00:02:31;;;;;;;12.90;6.60;;;;;;;13.47;77.36;98013.84;104825;1272;61216;-22
2023/10/15 00:05:01;;;;;;;12.90;7.40;;;;;;;13.66;76.14;98014.36;104804;1267;61120;-21
2023/10/15 00:07:30;;;;;;;15.70;7.50;;;;;;;13.50;76.38;98013.34;104806;1272;73449;-25
2023/10/15 00:17:42;;;;;;;15.60;5.30;;;;;;;12.69;80.02;98013.13;102611;1292;600157;-22
2023/10/15 00:20:16;;;;;;;10.90;5.90;;;;;;;13.27;78.82;98011.83;104812;1270;61100;-22
2023/10/15 00:29:39;;;;;;;18.50;7.30;;;;;;;13.21;77.16;98012.91;102629;1293;600885;-22
2023/10/15 00:39:46;;;;;;;9.40;6.50;;;;;;;12.41;81.03;98012.09;102525;1291;600074;-22
2023/10/15 00:42:15;;;;;;;9.90;6.70;;;;;;;13.04;79.78;98014.97;104766;1267;61080;-22
2023/10/15 00:44:43;;;;;;;12.10;7.30;;;;;;;13.53;77.92;98009.86;104842;1266;61107;-22
2023/10/15 00:47:15;;;;;;;14.50;7.20;;;;;;;13.55;76.74;98007.83;104831;1266;71003;-22
2023/10/15 00:49:43;;;;;;;14.30;7.60;;;;;;;13.37;76.64;98007.02;104777;1271;74286;-23
2023/10/15 00:52:14;;;;;;;17.90;7.90;;;;;;;13.11;77.02;98006.34;104501;1267;3146413;-24
2023/10/15 00:54:42;;;;;;;15.30;8.10;;;;;;;12.82;77.78;98004.71;104975;1264;61277;-23
2023/10/15 00:57:25;;;;;;;10.70;6.50;;;;;;;12.57;79.65;98006.50;105197;1258;61152;-22
2023/10/15 01:07:47;;;;;;;13.10;8.20;;;;;;;13.37;77.83;98011.02;102665;1292;600033;-22
2023/10/15 01:10:37;;;;;;;18.50;8.40;;;;;;;13.16;77.82;98007.70;104788;1273;61223;-22
2023/10/15 01:13:17;;;;;;;14.10;8.00;;;;;;;12.94;78.56;98007.41;104867;1262;61176;-22
2023/10/15 01:15:48;;;;;;;18.40;7.10;;;;;;;12.74;80.47;98004.87;105242;1257;72222;-22
2023/10/15 01:18:16;;;;;;;15.10;7.40;;;;;;;13.17;80.07;98002.17;105426;1263;74461;-22
2023/10/15 01:28:39;;;;;;;13.00;8.30;;;;;;;13.27;77.66;98010.43;102670;1292;600111;-23
2023/10/15 01:38:55;;;;;;;14.90;7.10;;;;;;;14.13;77.98;98009.82;102708;1290;600076;-22
2023/10/15 01:41:25;;;;;;;13.60;8.50;;;;;;;14.28;76.36;98006.39;104806;1271;61148;-23
2023/10/15 01:51:31;;;;;;;17.00;10.20;;;;;;;13.58;77.65;98015.04;102661;1294;600281;-22
2023/10/15 02:01:31;;;;;;;16.00;8.40;;;;;;;14.54;75.17;98026.89;102929;1291;601074;-22
2023/10/15 02:04:00;;;;;;;15.30;8.30;;;;;;;14.28;74.83;98028.58;104684;1273;61245;-23
2023/10/15 02:14:08;;;;;;;15.90;7.00;;;;;;;13.54;78.44;98035.39;102574;1292;599972;-22
2023/10/15 02:16:37;;;;;;;11.10;6.80;;;;;;;14.10;78.01;98036.17;108677;1266;58780;-22
2023/10/15 02:19:07;;;;;;;14.00;8.10;;;;;;;14.60;76.16;98030.77;108678;1266;60014;-23
2023/10/15 02:21:37;;;;;;;14.70;9.20;;;;;;;14.64;75.63;98021.00;108624;1266;72194;-23
2023/10/15 02:24:08;;;;;;;13.70;9.10;;;;;;;14.36;76.59;98016.54;108525;1266;73354;-23
2023/10/15 02:26:37;;;;;;;17.20;9.90;;;;;;;14.08;78.05;98017.98;106262;1272;2945097;-23
2023/10/15 02:29:22;;;;;;;15.20;10.20;;;;;;;13.93;78.42;98018.35;108534;1263;60269;-23
2023/10/15 02:31:49;;;;;;;17.30;9.90;;;;;;;13.83;77.25;98016.17;108754;1263;58934;-23
2023/10/15 02:34:17;;;;;;;12.70;6.50;;;;;;;13.67;78.23;98023.84;108699;1263;72295;-23
2023/10/15 02:36:46;;;;;;;14.50;8.20;;;;;;;14.17;78.38;98022.81;108748;1263;74282;-22
2023/10/15 02:39:14;;;;;;;10.90;7.60;;;;;;;14.76;76.89;98022.80;108688;1269;71439;-23
2023/10/15 02:41:42;;;;;;;15.10;8.30;;;;;;;14.87;75.39;98022.45;108679;1263;60097;-23
2023/10/15 02:44:13;;;;;;;13.30;10.00;;;;;;;14.64;75.59;98030.45;108760;1263;58779;-23
2023/10/15 02:46:57;;;;;;;13.70;10.00;;;;;;;14.34;77.01;98032.95;108753;1264;71842;-23
2023/10/15 02:49:25;;;;;;;15.20;10.40;;;;;;;14.02;79.13;98048.27;108715;1263;74295;-23
2023/10/15 02:51:53;;;;;;;16.10;9.80;;;;;;;13.74;81.04;98056.73;108772;1267;72464;-22
2023/10/15 02:54:37;;;;;;;15.10;7.60;;;;;;;13.61;82.55;98064.25;108843;1260;61764;-23
2023/10/15 02:57:05;;;;;;;12.90;8.40;;;;;;;14.16;82.05;98070.94;108983;1260;60037;-23
2023/10/15 02:59:33;;;;;;;13.40;9.30;;;;;;;14.57;80.02;98078.40;108932;1260;73113;-22
2023/10/15 03:02:06;;;;;;;16.00;9.70;;;;;;;14.56;80.21;98079.23;108897;1260;73142;-23
2023/10/15 03:04:38;;;;;;;14.80;10.30;;;;;;;14.41;81.36;98079.66;108777;1260;73111;-22
2023/10/15 03:07:30;;;;;;;14.90;9.50;;;;;;;14.20;83.01;98086.19;109236;1257;60124;-23
2023/10/15 03:09:58;;;;;;;12.00;6.80;;;;;;;14.18;83.85;98087.86;109044;1257;58865;-22
2023/10/15 03:12:33;;;;;;;12.60;6.90;;;;;;;14.69;81.91;98091.04;109091;1257;71883;-23
2023/10/15 03:15:03;;;;;;;11.20;7.00;;;;;;;14.95;80.14;98088.66;109008;1257;74363;-23
2023/10/15 03:17:31;;;;;;;8.20;6.30;;;;;;;14.91;80.24;98094.23;109058;1257;71128;-23
2023/10/15 03:20:11;;;;;;;8.30;6.20;;;;;;;14.82;80.11;98095.67;109079;1257;60254;-23
2023/10/15 03:22:39;;;;;;;7.60;5.70;;;;;;;14.54;81.58;98091.45;109064;1257;58936;-22
2023/10/15 03:25:13;;;;;;;9.30;4.30;;;;;;;14.44;82.54;98094.40;109112;1257;73079;-22
2023/10/15 03:27:41;;;;;;;7.90;4.90;;;;;;;14.83;81.49;98095.79;109038;1257;74326;-23
2023/10/15 03:30:10;;;;;;;7.00;4.80;;;;;;;15.15;79.23;98103.98;109062;1257;72736;-23
2023/10/15 03:32:41;;;;;;;8.20;4.80;;;;;;;15.08;79.00;98102.05;109070;1257;58868;-23
2023/10/15 03:35:16;;;;;;;6.50;4.90;;;;;;;14.89;80.01;98104.37;109034;1257;60090;-23
2023/10/15 03:37:47;;;;;;;8.70;5.40;;;;;;;14.70;80.59;98104.92;109079;1257;71798;-23
2023/10/15 03:40:32;;;;;;;5.30;3.40;;;;;;;14.53;81.48;98107.11;109050;1257;73080;-23
2023/10/15 03:43:15;;;;;;;4.90;3.20;;;;;;;14.92;80.21;98105.24;109073;1257;71128;-23
2023/10/15 03:45:52;;;;;;;4.40;3.40;;;;;;;15.13;78.62;98106.69;109011;1258;60082;-22
2023/10/15 03:48:30;;;;;;;9.00;4.10;;;;;;;15.05;78.89;98103.41;109056;1258;58818;-23
2023/10/15 03:50:58;;;;;;;5.70;4.20;;;;;;;14.86;79.24;98106.74;109051;1257;73190;-23
2023/10/15 03:53:31;;;;;;;6.10;4.00;;;;;;;14.65;80.12;98106.31;109039;1258;74314;-23
2023/10/15 03:56:01;;;;;;;6.00;3.40;;;;;;;14.41;81.88;98103.45;108997;1257;72675;-23
2023/10/15 03:58:31;;;;;;;6.50;3.10;;;;;;;14.80;79.95;98110.40;109035;1257;58819;-22
2023/10/15 04:01:22;;;;;;;3.90;3.20;;;;;;;15.11;78.39;98106.81;109074;1261;58767;-23
2023/10/15 04:03:48;;;;;;;5.80;3.10;;;;;;;14.98;78.53;98101.94;109014;1258;73042;-23
2023/10/15 04:06:16;;;;;;;5.70;3.20;;;;;;;14.75;78.84;98102.52;109064;1257;73162;-23
2023/10/15 04:09:09;;;;;;;4.20;3.30;;;;;;;14.61;79.66;98103.83;108818;1259;71446;-23
2023/10/15 04:11:43;;;;;;;4.00;2.40;;;;;;;14.29;80.82;98105.81;108939;1259;58830;-23
2023/10/15 04:17:11;;;;;;;3.70;2.30;;;;;;;14.72;79.35;98099.76;108887;1260;73530;-23
2023/10/15 04:19:39;;;;;;;4.40;2.20;;;;;;;14.79;78.69;98093.79;108958;1259;73212;-22
2023/10/15 04:22:13;;;;;;;2.70;2.30;;;;;;;14.72;78.69;98090.56;109042;1259;72668;-23
2023/10/15 04:24:46;;;;;;;2.70;2.10;;;;;;;14.55;79.33;98090.89;109029;1261;58884;-22
2023/10/15 04:27:24;;;;;;;4.20;2.20;;;;;;;14.33;80.13;98093.33;108975;1259;58728;-22
2023/10/15 04:29:54;;;;;;;2.70;1.80;;;;;;;14.23;81.18;98095.96;109031;1260;73093;-22
2023/10/15 04:35:17;;;;;;;3.70;2.00;;;;;;;14.97;78.06;98100.86;108812;1263;72686;-22
2023/10/15 04:37:45;;;;;;;2.60;1.80;;;;;;;14.78;78.34;98104.95;108761;1268;60115;-22
2023/10/15 04:40:16;;;;;;;3.00;1.80;;;;;;;14.57;78.90;98107.55;108839;1261;58825;-23
2023/10/15 04:42:49;;;;;;;4.80;2.30;;;;;;;14.39;80.11;98113.42;108788;1262;71910;-23
2023/10/15 04:45:23;;;;;;;3.30;1.40;;;;;;;14.29;80.36;98111.98;108835;1263;73195;-23
2023/10/15 04:47:53;;;;;;;3.20;1.50;;;;;;;14.71;79.59;98124.77;108791;1263;71490;-23
2023/10/15 04:50:26;;;;;;;3.00;1.90;;;;;;;15.02;77.73;98129.79;108818;1261;60080;-23
2023/10/15 04:53:02;;;;;;;2.30;1.90;;;;;;;14.83;77.75;98131.60;108766;1263;60176;-23
2023/10/15 04:55:30;;;;;;;3.60;1.90;;;;;;;14.65;78.52;98137.28;108727;1263;73069;-23
2023/10/15 04:57:58;;;;;;;1.60;1.50;;;;;;;14.45;79.39;98140.03;108835;1261;74347;-22
2023/10/15 05:00:25;;;;;;;3.00;2.20;;;;;;;14.27;80.47;98139.93;108814;1261;72680;-23
2023/10/15 05:02:53;;;;;;;4.00;1.70;;;;;;;14.15;81.36;98136.85;108825;1263;60420;-22
2023/10/15 05:05:22;;;;;;;2.00;1.80;;;;;;;14.63;80.30;98138.65;109093;1259;60228;-23
2023/10/15 05:07:50;;;;;;;3.60;2.10;;;;;;;14.87;78.51;98150.19;108960;1261;70792;-23
2023/10/15 05:10:20;;;;;;;2.60;1.80;;;;;;;14.72;79.13;98156.77;108954;1260;74524;-23
2023/10/15 05:12:48;;;;;;;2.70;2.00;;;;;;;14.51;80.22;98156.11;109012;1260;71385;-23
2023/10/15 05:15:16;;;;;;;3.30;2.20;;;;;;;14.40;80.88;98155.61;108980;1260;60082;-23
2023/10/15 05:17:46;;;;;;;4.00;2.10;;;;;;;14.24;81.50;98151.55;108962;1264;58771;-22
2023/10/15 05:20:14;;;;;;;2.30;1.40;;;;;;;14.18;81.88;98148.08;108968;1260;73040;-23
2023/10/15 05:22:41;;;;;;;2.90;1.60;;;;;;;14.63;80.78;98151.27;109000;1259;74303;-23
2023/10/15 05:25:15;;;;;;;4.40;1.80;;;;;;;14.95;79.19;98158.32;108979;1261;72647;-22
2023/10/15 05:27:49;;;;;;;3.90;1.80;;;;;;;14.90;78.92;98164.58;108939;1259;58816;-23
2023/10/15 05:30:17;;;;;;;2.70;1.80;;;;;;;14.69;79.41;98167.95;108859;1260;60080;-22
2023/10/15 05:32:45;;;;;;;5.80;2.20;;;;;;;14.40;80.79;98170.80;108937;1260;73049;-23
2023/10/15 05:35:13;;;;;;;2.60;1.70;;;;;;;14.22;81.84;98168.68;108997;1260;73346;-23
2023/10/15 05:37:41;;;;;;;3.60;2.00;;;;;;;14.50;81.55;98165.84;109040;1259;71774;-23
2023/10/15 05:40:09;;;;;;;5.20;2.00;;;;;;;14.72;80.37;98165.52;108895;1260;58830;-23
2023/10/15 05:42:36;;;;;;;5.10;2.20;;;;;;;14.58;80.83;98164.55;108951;1261;58761;-22
2023/10/15 05:45:07;;;;;;;4.50;2.30;;;;;;;14.31;82.11;98173.30;109020;1259;71736;-22
2023/10/15 05:47:35;;;;;;;4.00;2.30;;;;;;;14.11;83.39;98179.18;108935;1260;74313;-23
2023/10/15 05:50:04;;;;;;;4.60;1.70;;;;;;;13.99;84.49;98186.64;108922;1259;72659;-23
2023/10/15 05:52:32;;;;;;;2.80;1.90;;;;;;;14.40;83.27;98184.91;108977;1259;58868;-23
2023/10/15 05:55:05;;;;;;;5.30;2.10;;;;;;;14.80;81.58;98187.98;109007;1259;60040;-23
2023/10/15 05:57:36;;;;;;;3.80;2.20;;;;;;;14.70;80.86;98187.08;109002;1261;71785;-22
2023/10/15 06:00:17;;;;;;;2.90;2.20;;;;;;;14.51;81.89;98193.64;108976;1260;73696;-23
2023/10/15 06:02:50;;;;;;;6.10;2.80;;;;;;;14.26;83.12;98198.13;108901;1259;72771;-23
2023/10/15 06:05:18;;;;;;;2.90;2.10;;;;;;;14.11;84.29;98198.88;109004;1260;60724;-22
2023/10/15 06:07:46;;;;;;;7.00;2.30;;;;;;;14.44;83.17;98201.98;109068;1260;58792;-23
2023/10/15 06:10:14;;;;;;;3.00;2.20;;;;;;;14.65;82.10;98202.29;108940;1260;73126;-23
2023/10/15 06:12:42;;;;;;;3.10;2.50;;;;;;;14.61;81.78;98208.19;108955;1260;73068;-23
2023/10/15 06:15:11;;;;;;;5.50;2.60;;;;;;;14.31;83.39;98212.94;108949;1261;71434;-23
2023/10/15 06:17:46;;;;;;;2.90;2.30;;;;;;;13.90;85.27;98208.50;108896;1259;60685;-23
2023/10/15 06:20:15;;;;;;;3.90;2.10;;;;;;;13.66;86.43;98212.60;108961;1259;60030;-22
2023/10/15 06:22:45;;;;;;;4.00;1.70;;;;;;;13.91;86.17;98214.20;108989;1260;71829;-23
2023/10/15 06:25:16;;;;;;;3.50;1.90;;;;;;;14.02;85.22;98210.88;108925;1259;75445;-22
2023/10/15 06:27:44;;;;;;;2.30;1.70;;;;;;;13.89;85.61;98213.33;108854;1261;71427;-23
2023/10/15 06:30:16;;;;;;;4.00;1.80;;;;;;;13.56;86.73;98209.67;108991;1260;58838;-22
2023/10/15 06:32:49;;;;;;;4.10;1.40;;;;;;;13.35;87.33;98210.67;108955;1260;58891;-22
2023/10/15 06:35:18;;;;;;;2.40;0.80;;;;;;;13.47;84.31;98207.00;108976;1260;73860;-23
2023/10/15 06:37:50;;;;;;;2.20;1.00;;;;;;;13.46;80.65;98202.73;108832;1260;74371;-22
2023/10/15 06:40:18;;;;;;;1.60;1.10;;;;;;;13.20;80.90;98208.00;108766;1259;72722;-22
2023/10/15 06:42:51;;;;;;;6.20;1.30;;;;;;;12.98;82.17;98206.89;108952;1259;58841;-22
2023/10/15 06:45:20;;;;;;;1.30;0.90;;;;;;;12.70;83.63;98211.30;108866;1260;60017;-22
2023/10/15 06:47:51;;;;;;;2.10;1.10;;;;;;;12.50;85.20;98214.17;108942;1260;73893;-22
2023/10/15 06:50:22;;;;;;;3.70;0.90;;;;;;;12.94;84.42;98209.59;108844;1260;74360;-23
2023/10/15 06:52:53;;;;;;;2.30;1.00;;;;;;;13.14;82.93;98215.34;108903;1260;72628;-23
2023/10/15 06:55:21;;;;;;;1.10;0.90;;;;;;;13.08;83.11;98216.99;109015;1260;60038;-23
2023/10/15 06:57:50;;;;;;;1.80;1.20;;;;;;;12.82;84.21;98218.94;108931;1259;60022;-22
2023/10/15 07:00:24;;;;;;;3.40;1.20;;;;;;;12.61;86.02;98224.05;108821;1260;73885;-22
2023/10/15 07:02:53;;;;;;;1.20;0.90;;;;;;;12.55;87.16;98225.89;108963;1259;73038;-23
2023/10/15 07:05:25;;;;;;;1.30;1.00;;;;;;;12.98;86.15;98226.88;108835;1260;72813;-22
2023/10/15 07:07:57;;;;;;;2.90;1.10;;;;;;;13.21;84.40;98227.61;108925;1260;58925;-22
2023/10/15 07:10:27;;;;;;;2.10;1.30;;;;;;;13.06;84.48;98231.01;108918;1260;58762;-22
2023/10/15 07:12:56;;;;;;;1.70;1.10;;;;;;;12.73;85.51;98239.06;108889;1260;72595;-22
2023/10/15 07:15:24;;;;;;;1.90;1.00;;;;;;;12.47;86.86;98243.11;108911;1260;74340;-23
2023/10/15 07:17:53;;;;;;;2.20;1.20;;;;;;;12.42;88.00;98242.86;108958;1260;72433;-23
2023/10/15 07:20:24;;;;;;;1.70;1.00;;;;;;;12.67;86.34;98243.45;108935;1260;60050;-22
2023/10/15 07:22:53;;;;;;;1.70;1.00;;;;;;;12.57;85.25;98248.64;108981;1260;60204;-23
2023/10/15 07:25:22;;;;;;;1.80;1.00;;;;;;;12.27;86.06;98251.23;108955;1260;73855;-23
2023/10/15 07:27:49;;;;;;;2.50;1.30;;;;;;;12.11;87.61;98252.77;108948;1260;72557;-22
2023/10/15 07:30:21;;;;;;;1.10;0.90;;;;;;;11.99;88.81;98257.02;108952;1260;72655;-22
2023/10/15 07:32:59;;;;;;;2.50;0.90;;;;;;;12.30;87.88;98259.14;108802;1260;60175;-22
2023/10/15 07:35:29;;;;;;;3.20;1.30;;;;;;;12.40;87.08;98264.50;108815;1260;58839;-22
2023/10/15 07:37:57;;;;;;;2.50;1.10;;;;;;;12.28;87.63;98264.64;108654;1260;73872;-22
2023/10/15 07:40:26;;;;;;;1.60;1.10;;;;;;;12.09;88.46;98270.59;108961;1260;74401;-23
2023/10/15 07:42:59;;;;;;;1.60;0.90;;;;;;;11.89;89.88;98272.30;108668;1260;70656;-23
2023/10/15 07:45:31;;;;;;;0.90;0.80;;;;;;;12.21;89.12;98273.60;108874;1260;60060;-23
2023/10/15 07:48:01;;;;;;;2.60;1.20;;;;;;;12.36;87.43;98264.72;108812;1260;60092;-23
2023/10/15 07:50:30;;;;;;;2.40;1.10;;;;;;;12.29;87.67;98267.83;108861;1260;72619;-23
2023/10/15 07:52:59;;;;;;;2.90;1.30;;;;;;;12.05;88.41;98266.98;108767;1260;74347;-22
2023/10/15 07:55:27;;;;;;;1.60;1.00;;;;;;;11.88;89.63;98276.38;108792;1260;71421;-23
2023/10/15 07:57:55;;;;;;;2.30;1.30;;;;;;;12.24;89.09;98282.86;108927;1260;60191;-23
2023/10/15 08:00:23;;;;;;;2.80;1.20;;;;;;;12.49;87.76;98287.80;108977;1260;60080;-23
2023/10/15 08:02:57;;;;;;;3.60;1.70;;;;;;;12.50;87.45;98285.57;108951;1260;73661;-23
2023/10/15 08:05:28;;;;;;;3.30;1.90;;;;;;;12.22;88.08;98287.21;108983;1260;74359;-23
2023/10/15 08:07:57;;;;;;;4.40;1.50;;;;;;;11.99;89.45;98293.61;108835;1260;70564;-23
2023/10/15 08:10:31;;;;;;;5.30;1.50;;;;;;;12.09;89.56;98302.27;108790;1260;60461;-22
2023/10/15 08:13:01;;;;;;;2.90;1.30;;;;;;;12.40;87.71;98303.99;108923;1260;60018;-24
2023/10/15 08:15:29;;;;;;;3.40;1.70;;;;;;;12.41;87.13;98304.48;108967;1260;72586;-23
2023/10/15 08:17:57;;;;;;;3.70;1.90;;;;;;;12.13;87.43;98296.63;108902;1260;73086;-23
2023/10/15 08:20:26;;;;;;;4.20;1.90;;;;;;;11.94;88.63;98300.89;108931;1260;72681;-22
2023/10/15 08:22:54;;;;;;;6.90;1.60;;;;;;;11.74;89.75;98305.42;108917;1260;61697;-22
2023/10/15 08:25:22;;;;;;;3.70;2.20;;;;;;;12.16;88.74;98310.70;108910;1260;60175;-22
2023/10/15 08:27:50;;;;;;;3.00;1.80;;;;;;;12.41;86.57;98321.16;108936;1265;73866;-23
2023/10/15 08:30:18;;;;;;;5.80;2.10;;;;;;;12.20;86.13;98315.17;108957;1260;73523;-22
2023/10/15 08:32:46;;;;;;;4.50;2.20;;;;;;;12.08;87.06;98316.19;108927;1260;72651;-22
2023/10/15 08:35:15;;;;;;;4.20;2.00;;;;;;;11.78;88.41;98326.73;108893;1260;60061;-23
2023/10/15 08:37:43;;;;;;;3.40;1.70;;;;;;;11.82;88.93;98335.61;108807;1260;58861;-22
2023/10/15 08:40:20;;;;;;;3.80;1.70;;;;;;;12.14;86.81;98335.45;108941;1260;73865;-23
2023/10/15 08:42:59;;;;;;;4.40;2.00;;;;;;;12.13;85.79;98327.75;108740;1260;73070;-22
2023/10/15 08:45:27;;;;;;;7.20;2.00;;;;;;;11.81;86.59;98325.83;108794;1260;72716;-23
2023/10/15 08:47:55;;;;;;;7.10;2.50;;;;;;;11.73;87.57;98335.27;108781;1262;58835;-22
2023/10/15 08:50:23;;;;;;;3.10;1.50;;;;;;;11.64;88.84;98335.65;108933;1260;60045;-23
2023/10/15 08:52:52;;;;;;;6.50;1.90;;;;;;;12.10;87.81;98327.38;108891;1260;72594;-23
2023/10/15 08:55:24;;;;;;;10.40;2.20;;;;;;;12.25;85.70;98330.02;108784;1260;74295;-23
2023/10/15 08:57:54;;;;;;;6.50;1.90;;;;;;;12.21;86.02;98332.40;108903;1260;71723;-22
2023/10/15 09:00:26;;;;;;;5.10;1.90;;;;;;;11.95;86.84;98337.15;108875;1260;60055;-22
2023/10/15 09:02:57;;;;;;;4.60;2.00;;;;;;;11.72;88.20;98335.34;108823;1260;60031;-22
2023/10/15 09:05:25;;;;;;;5.40;1.80;;;;;;;11.67;89.28;98335.61;108787;1260;73899;-23
2023/10/15 09:08:01;;;;;;;5.50;1.70;;;;;;;12.00;87.91;98339.25;108847;1260;73366;-23
2023/10/15 09:10:36;;;;;;;3.10;1.90;;;;;;;12.07;86.99;98341.92;108787;1260;72653;-23
2023/10/15 09:13:18;;;;;;;6.80;2.20;;;;;;;12.02;86.80;98347.84;108794;1260;58857;-22
2023/10/15 09:15:50;;;;;;;6.80;2.20;;;;;;;11.82;87.88;98350.59;108831;1260;58794;-23
2023/10/15 09:18:20;;;;;;;5.50;2.10;;;;;;;11.67;89.20;98356.67;108733;1260;73916;-23
2023/10/15 09:20:50;;;;;;;5.30;2.20;;;;;;;11.92;88.37;98359.20;108801;1260;75512;-22
2023/10/15 09:23:24;;;;;;;5.50;2.30;;;;;;;12.23;86.66;98362.92;108750;1260;72895;-22
2023/10/15 09:25:57;;;;;;;4.70;2.70;;;;;;;12.16;86.24;98361.23;108817;1262;58851;-22
2023/10/15 09:28:27;;;;;;;;;;;;;;;11.90;87.18;98357.10;108824;1260;60024;-22
2023/10/15 09:31:05;;;;;;;6.40;2.30;;;;;;;11.65;88.79;98356.69;108846;1260;73845;-22
2023/10/15 09:33:35;;;;;;;5.40;2.90;;;;;;;11.81;88.47;98355.39;108792;1260;74336;-22
2023/10/15 09:36:05;;;;;;;4.70;2.90;;;;;;;12.12;86.38;98351.15;108797;1260;73791;-23
2023/10/15 09:38:36;;;;;;;6.40;3.20;;;;;;;12.22;86.18;98343.73;108755;1260;58832;-23
2023/10/15 09:41:06;;;;;;;7.20;3.40;;;;;;;12.06;85.79;98331.96;108800;1260;58847;-23
2023/10/15 09:43:36;;;;;;;7.70;3.40;;;;;;;12.00;87.42;98339.74;108817;1260;74830;-22
2023/10/15 09:46:07;;;;;;;6.90;2.80;;;;;;;11.85;87.69;98343.69;108781;1260;73333;-22
2023/10/15 09:48:37;;;;;;;6.60;3.00;;;;;;;12.20;86.16;98340.95;108752;1260;72651;-23
2023/10/15 09:51:08;;;;;;;6.90;3.20;;;;;;;12.38;85.18;98344.55;108803;1260;58874;-23
2023/10/15 09:53:41;;;;;;;5.40;3.20;;;;;;;12.28;85.03;98344.69;108793;1261;60043;-23
2023/10/15 09:56:12;;;;;;;7.20;3.30;;;;;;;12.20;85.33;98343.88;108819;1263;73839;-22
2023/10/15 09:58:44;;;;;;;7.00;3.10;;;;;;;12.08;85.99;98344.06;108769;1261;74388;-22
2023/10/15 10:01:28;;;;;;;4.90;2.70;;;;;;;12.02;86.20;98334.02;108758;1260;72342;-22
2023/10/15 10:04:40;;;;;;;;;;;;;;;12.50;84.36;98324.27;108791;1260;59031;-23
2023/10/15 10:18:01;;;;;;;5.90;2.40;;;;;;;12.27;84.10;98329.02;102662;1293;600869;-22
2023/10/15 10:20:33;;;;;;;7.20;2.50;;;;;;;12.34;82.94;98325.33;104705;1267;61133;-22
2023/10/15 10:30:50;;;;;;;3.50;1.80;;;;;;;12.10;85.50;98315.36;102663;1294;600177;-24
2023/10/15 10:33:37;;;;;;;3.30;1.70;;;;;;;12.66;82.85;98310.10;104873;1263;61005;-24
2023/10/15 10:36:27;;;;;;;8.60;2.60;;;;;;;12.92;80.70;98305.52;104869;1263;61052;-24
2023/10/15 10:39:10;;;;;;;5.20;1.80;;;;;;;12.81;80.84;98307.57;104844;1263;72264;-22
2023/10/15 10:49:39;;;;;;;4.30;2.00;;;;;;;12.54;81.05;98309.02;102562;1292;600238;-22
2023/10/15 10:59:51;;;;;;;4.30;2.20;;;;;;;12.14;81.93;98296.50;102632;1294;599501;-21
2023/10/15 11:02:20;;;;;;;4.20;1.50;;;;;;;11.97;83.26;98291.36;104809;1274;61205;-21
2023/10/15 11:04:48;;;;;;;5.30;1.60;;;;;;;12.38;82.77;98288.57;104685;1267;61072;-22
2023/10/15 11:07:17;;;;;;;8.10;1.80;;;;;;;12.72;80.68;98295.92;105032;1268;70952;-22
2023/10/15 11:09:45;;;;;;;4.60;1.90;;;;;;;12.71;80.41;98296.77;104874;1271;74489;-21
2023/10/15 11:12:14;;;;;;;7.40;2.20;;;;;;;12.60;81.18;98294.71;104773;1267;71249;-22
2023/10/15 11:14:42;;;;;;;3.90;2.00;;;;;;;12.24;82.27;98301.41;103198;1262;61231;-21
2023/10/15 11:17:10;;;;;;;8.20;2.20;;;;;;;11.85;83.01;98304.36;105557;1257;61179;-21
2023/10/15 11:19:39;;;;;;;3.30;1.50;;;;;;;11.66;84.81;98303.95;105488;1263;70986;-21
2023/10/15 11:22:08;;;;;;;7.40;2.10;;;;;;;11.97;83.79;98301.81;105345;1257;74265;-21
2023/10/15 11:24:36;;;;;;;5.30;1.70;;;;;;;12.13;83.25;98309.09;105304;1258;71367;-21
2023/10/15 11:28:37;;;;;;;3.30;1.40;;;;;;;11.81;84.11;98316.43;102639;1292;600902;-21
2023/10/15 11:31:05;;;;;;;4.70;1.80;;;;;;;11.10;83.44;98317.86;104983;1269;61280;-21
2023/10/15 11:33:34;;;;;;;4.40;1.40;;;;;;;10.70;82.94;98315.00;104856;1267;61291;-19
2023/10/15 11:36:06;;;;;;;7.00;2.00;;;;;;;10.35;82.61;98322.48;104770;1272;72198;-19
2023/10/15 11:38:34;;;;;;;1.90;0.80;;;;;;;10.43;80.20;98328.74;104770;1276;73230;-19
2023/10/15 11:41:04;;;;;;;2.10;0.90;;;;;;;10.54;77.82;98334.65;104829;1270;72728;-19
2023/10/15 11:43:34;;;;;;;4.10;1.20;;;;;;;10.35;77.81;98332.08;102520;1273;61304;-21
2023/10/15 11:53:46;;;;;;;2.80;0.90;;;;;;;9.42;81.48;98352.77;102705;1293;599868;-20
2023/10/15 11:56:16;;;;;;;2.10;0.80;;;;;;;9.90;80.18;98351.86;104903;1271;61311;-20
2023/10/15 11:58:45;;;;;;;4.80;0.90;;;;;;;10.24;79.32;98342.76;104914;1266;61139;-20
2023/10/15 12:01:15;;;;;;;1.60;0.90;;;;;;;10.15;79.31;98343.55;104850;1267;72210;-20
2023/10/15 12:03:43;;;;;;;3.20;1.00;;;;;;;10.02;80.47;98342.11;104825;1273;74341;-20
2023/10/15 12:06:14;;;;;;;1.80;0.80;;;;;;;9.89;81.49;98351.10;104202;1264;3235689;-21
2023/10/15 12:08:42;;;;;;;1.20;0.80;;;;;;;9.76;82.63;98353.99;104923;1269;61127;-20
2023/10/15 12:11:10;;;;;;;2.60;0.90;;;;;;;10.16;82.95;98354.61;104952;1263;61117;-20
2023/10/15 12:13:40;;;;;;;4.20;1.10;;;;;;;10.52;79.81;98352.89;105142;1268;61173;-20
2023/10/15 12:16:08;;;;;;;2.00;0.70;;;;;;;10.51;78.65;98351.79;105134;1263;72185;-20
2023/10/15 12:18:36;;;;;;;2.40;1.00;;;;;;;10.39;79.38;98351.48;104859;1267;73101;-20
2023/10/15 12:21:03;;;;;;;3.00;1.10;;;;;;;10.09;79.64;98351.73;105105;1263;72462;-21
2023/10/15 12:31:11;;;;;;;1.30;0.90;;;;;;;10.52;78.52;98350.27;102686;1294;599500;-20
2023/10/15 12:33:40;;;;;;;3.50;1.10;;;;;;;10.40;78.35;98350.30;104871;1266;61155;-20
2023/10/15 12:36:09;;;;;;;3.20;1.30;;;;;;;10.27;78.98;98347.19;104977;1270;61122;-21
2023/10/15 12:38:39;;;;;;;4.30;1.60;;;;;;;10.01;80.29;98348.60;104865;1270;72318;-20
2023/10/15 12:41:07;;;;;;;4.60;1.10;;;;;;;9.82;81.03;98352.06;104829;1270;74313;-20
2023/10/15 12:43:40;;;;;;;2.50;1.40;;;;;;;9.66;81.77;98350.15;104592;1267;3170051;-22
2023/10/15 12:46:08;;;;;;;5.40;1.30;;;;;;;10.14;81.17;98352.00;105151;1264;61137;-21
2023/10/15 12:56:39;;;;;;;2.60;1.10;;;;;;;10.12;79.68;98366.24;102473;1293;616259;-22
2023/10/15 12:59:06;;;;;;;5.10;1.00;;;;;;;9.92;81.05;98365.23;104856;1266;61084;-22
2023/10/15 13:01:34;;;;;;;2.40;0.90;;;;;;;9.76;80.65;98357.94;105025;1266;61178;-22
2023/10/15 13:04:01;;;;;;;4.10;1.00;;;;;;;10.09;79.18;98349.95;105005;1266;72082;-22
2023/10/15 13:06:28;;;;;;;5.10;1.30;;;;;;;10.48;77.32;98345.10;105004;1266;74170;-22
2023/10/15 13:08:55;;;;;;;4.10;1.30;;;;;;;10.57;76.82;98342.86;102671;1270;3079469;-22
2023/10/15 13:11:23;;;;;;;3.70;1.50;;;;;;;10.35;77.64;98346.05;104744;1265;61152;-22
2023/10/15 13:13:50;;;;;;;2.40;1.10;;;;;;;10.18;78.93;98342.06;104994;1268;61085;-22
2023/10/15 13:16:18;;;;;;;3.80;1.00;;;;;;;10.02;79.71;98342.44;104894;1266;72242;-22
2023/10/15 13:18:46;;;;;;;6.30;1.40;;;;;;;9.83;80.75;98342.81;104842;1266;74233;-22
2023/10/15 13:21:14;;;;;;;3.70;1.00;;;;;;;10.18;80.61;98341.76;104952;1268;72679;-22
2023/10/15 13:23:41;;;;;;;4.20;1.20;;;;;;;10.65;78.73;98335.27;104904;1266;61091;-22
2023/10/15 13:26:08;;;;;;;7.10;1.50;;;;;;;10.67;78.71;98339.23;104848;1268;61142;-22
2023/10/15 13:28:36;;;;;;;5.50;1.70;;;;;;;10.45;79.73;98341.58;104752;1266;72011;-22
2023/10/15 13:31:03;;;;;;;2.20;1.10;;;;;;;10.21;81.08;98336.76;104865;1265;74119;-22
2023/10/15 13:33:30;;;;;;;2.60;1.10;;;;;;;10.04;82.03;98329.63;104921;1264;73144;-22
2023/10/15 13:35:57;;;;;;;3.10;1.00;;;;;;;9.91;82.60;98327.00;104764;1264;61770;-23
2023/10/15 13:38:25;;;;;;;5.00;1.40;;;;;;;10.36;82.55;98332.61;104817;1271;61211;-22
2023/10/15 13:40:53;;;;;;;1.70;0.90;;;;;;;10.93;80.76;98330.37;104886;1264;73057;-22
2023/10/15 13:43:22;;;;;;;1.60;1.00;;;;;;;11.03;79.44;98324.75;104773;1263;74336;-22
2023/10/15 13:45:49;;;;;;;2.50;1.00;;;;;;;10.87;79.43;98322.80;104741;1266;72635;-22
2023/10/15 13:48:16;;;;;;;4.60;1.20;;;;;;;10.64;80.40;98319.16;104933;1266;61112;-22
2023/10/15 13:50:43;;;;;;;2.90;1.00;;;;;;;10.41;80.99;98319.67;105225;1264;61635;-22
2023/10/15 13:53:10;;;;;;;2.60;1.00;;;;;;;10.22;82.17;98319.14;105103;1262;73044;-22